createdAt,value
2019-01-09T05:01:49.793Z,2.00
2019-01-09T05:04:18.933Z,2.00
2019-01-09T05:06:47.813Z,2.00
2019-01-09T05:09:17.102Z,2.00
2019-01-09T05:11:46.277Z,2.00
2019-01-09T05:14:15.328Z,1.90
2019-01-09T05:16:44.114Z,1.90
2019-01-09T05:19:12.916Z,1.90
2019-01-09T05:21:41.960Z,1.90
2019-01-09T05:24:11.080Z,1.90
2019-01-09T05:26:40.229Z,1.90
2019-01-09T05:29:09.668Z,2.00
2019-01-09T05:31:38.952Z,1.90
2019-01-09T05:34:08.261Z,1.90
2019-01-09T05:36:37.517Z,1.90
2019-01-09T05:39:07.656Z,1.90
2019-01-09T05:41:37.023Z,1.90
2019-01-09T05:44:06.321Z,1.80
2019-01-09T05:46:35.622Z,1.80
2019-01-09T05:49:04.469Z,1.80
2019-01-09T05:51:33.527Z,1.80
2019-01-09T05:54:02.537Z,1.90
2019-01-09T05:56:31.344Z,1.80
2019-01-09T05:59:00.360Z,1.80
2019-01-09T06:01:29.382Z,1.80
2019-01-09T06:03:58.861Z,1.80
2019-01-09T06:06:27.724Z,1.80
2019-01-09T06:08:56.516Z,1.80
2019-01-09T06:11:25.537Z,1.80
2019-01-09T06:13:54.941Z,1.80
2019-01-09T06:16:23.985Z,1.90
2019-01-09T06:18:52.902Z,1.90
2019-01-09T06:21:21.924Z,1.80
2019-01-09T06:23:51.437Z,1.80
2019-01-09T06:26:20.228Z,1.80
2019-01-09T06:28:49.505Z,1.80
2019-01-09T06:31:19.201Z,1.80
2019-01-09T06:33:48.044Z,1.80
2019-01-09T06:36:17.110Z,1.80
2019-01-09T06:38:46.188Z,1.80
2019-01-09T06:41:15.200Z,1.80
2019-01-09T06:43:44.257Z,1.80
2019-01-09T06:46:13.616Z,1.80
2019-01-09T06:48:42.412Z,1.80
2019-01-09T06:51:11.196Z,1.90
2019-01-09T06:53:40.001Z,1.80
2019-01-09T06:56:09.137Z,1.80
2019-01-09T06:58:37.916Z,1.80
2019-01-09T07:01:06.718Z,1.70
2019-01-09T07:03:35.597Z,1.80
2019-01-09T07:06:04.539Z,1.80
2019-01-09T07:08:33.785Z,1.70
2019-01-09T07:11:02.662Z,1.70
2019-01-09T07:13:31.436Z,1.70
2019-01-09T07:16:00.513Z,1.80
2019-01-09T07:18:29.620Z,1.80
2019-01-09T07:20:58.770Z,1.80
2019-01-09T07:23:27.561Z,1.80
2019-01-09T07:25:56.602Z,1.80
2019-01-09T07:28:25.499Z,1.80
2019-01-09T07:30:54.351Z,1.80
2019-01-09T07:33:23.220Z,1.80
2019-01-09T07:35:52.548Z,1.80
2019-01-09T07:38:21.591Z,1.80
2019-01-09T07:40:50.449Z,1.80
2019-01-09T07:43:19.543Z,1.80
2019-01-09T07:45:48.668Z,1.80
2019-01-09T07:48:17.784Z,1.80
2019-01-09T07:50:46.905Z,1.80
2019-01-09T07:53:15.776Z,1.90
2019-01-09T07:55:44.873Z,1.80
2019-01-09T07:58:14.132Z,1.80
2019-01-09T08:00:43.176Z,1.80
2019-01-09T08:03:12.714Z,1.70
2019-01-09T08:05:41.804Z,1.80
2019-01-09T08:08:11.105Z,1.80
2019-01-09T08:10:40.028Z,1.70
2019-01-09T08:13:09.489Z,1.80
2019-01-09T08:15:38.785Z,1.80
2019-01-09T08:18:07.966Z,1.90
2019-01-09T08:20:36.916Z,1.80
2019-01-09T08:23:06.013Z,1.70
2019-01-09T08:25:34.794Z,1.70
2019-01-09T08:28:03.604Z,1.80
2019-01-09T08:30:33.313Z,1.80
2019-01-09T08:33:02.088Z,1.80
2019-01-09T08:35:30.877Z,1.80
2019-01-09T08:38:02.958Z,1.80
2019-01-09T08:40:30.699Z,1.80
2019-01-09T08:43:00.233Z,1.80
2019-01-09T08:45:29.780Z,1.80
2019-01-09T08:47:58.565Z,1.90
2019-01-09T08:50:27.436Z,1.90
2019-01-09T08:52:56.548Z,1.80
2019-01-09T08:55:25.644Z,1.80
2019-01-09T08:57:55.162Z,1.80
2019-01-09T09:00:24.310Z,1.80
2019-01-09T09:02:53.680Z,1.80
2019-01-09T09:05:22.694Z,1.80
2019-01-09T09:08:01.565Z,1.70
2019-01-09T09:10:30.767Z,1.70
2019-01-09T09:12:59.844Z,1.70
2019-01-09T09:15:29.140Z,1.60
2019-01-09T09:17:58.125Z,1.60
2019-01-09T09:20:27.499Z,1.60
2019-01-09T09:22:56.369Z,1.60
2019-01-09T09:25:25.477Z,1.70
2019-01-09T09:27:54.831Z,1.70
2019-01-09T09:30:23.933Z,1.60
2019-01-09T09:32:52.973Z,1.60
2019-01-09T09:35:21.776Z,1.70
2019-01-09T09:37:50.809Z,1.70
2019-01-09T09:40:21.465Z,1.70
2019-01-09T09:42:50.315Z,1.70
2019-01-09T09:45:19.516Z,1.80
2019-01-09T09:47:48.554Z,1.70
2019-01-09T09:50:18.005Z,1.70
2019-01-09T09:52:47.120Z,1.70
2019-01-09T09:55:16.120Z,1.70
2019-01-09T09:57:45.428Z,1.80
2019-01-09T10:00:18.242Z,1.80
2019-01-09T10:02:47.035Z,1.70
2019-01-09T10:05:16.440Z,1.70
2019-01-09T10:07:45.241Z,1.70
2019-01-09T10:10:14.576Z,1.70
2019-01-09T10:12:43.522Z,1.70
2019-01-09T10:15:12.992Z,1.70
2019-01-09T10:17:42.190Z,1.80
2019-01-09T10:20:13.415Z,1.80
2019-01-09T10:22:42.628Z,1.80
2019-01-09T10:25:11.560Z,1.80
2019-01-09T10:27:40.365Z,1.80
2019-01-09T10:30:13.422Z,1.90
2019-01-09T10:32:42.681Z,1.80
2019-01-09T10:35:11.942Z,1.90
2019-01-09T10:37:40.884Z,1.90
2019-01-09T10:40:11.688Z,1.90
2019-01-09T10:42:40.784Z,1.80
2019-01-09T10:45:10.557Z,1.90
2019-01-09T10:47:39.417Z,1.90
2019-01-09T10:50:09.181Z,1.80
2019-01-09T10:52:37.956Z,1.80
2019-01-09T10:55:07.190Z,1.80
2019-01-09T10:57:35.976Z,1.90
2019-01-09T11:00:07.244Z,2.00
2019-01-09T11:02:36.038Z,2.00
2019-01-09T11:05:05.664Z,1.90
2019-01-09T11:07:34.468Z,1.90
2019-01-09T11:10:03.422Z,2.00
2019-01-09T11:12:32.486Z,1.90
2019-01-09T11:15:01.584Z,1.90
2019-01-09T11:17:30.389Z,1.80
2019-01-09T11:19:59.260Z,1.90
2019-01-09T11:22:28.553Z,1.80
2019-01-09T11:24:57.330Z,1.70
2019-01-09T11:27:26.381Z,1.70
2019-01-09T11:29:55.431Z,1.70
2019-01-09T11:32:24.553Z,1.80
2019-01-09T11:34:53.425Z,1.70
2019-01-09T11:37:22.199Z,1.80
2019-01-09T11:39:51.255Z,1.70
2019-01-09T11:42:20.028Z,1.80
2019-01-09T11:44:49.076Z,1.80
2019-01-09T11:47:18.100Z,1.80
2019-01-09T11:49:47.444Z,1.70
2019-01-09T11:52:16.484Z,1.70
2019-01-09T11:54:45.523Z,1.70
2019-01-09T11:57:14.532Z,1.70
2019-01-09T11:59:43.564Z,1.60
2019-01-09T12:02:12.685Z,1.50
2019-01-09T12:04:42.215Z,1.60
2019-01-09T12:07:11.624Z,1.60
2019-01-09T12:09:40.789Z,1.60
2019-01-09T12:12:09.926Z,1.60
2019-01-09T12:14:39.246Z,1.60
2019-01-09T12:17:08.039Z,1.60
2019-01-09T12:19:37.190Z,1.60
2019-01-09T12:22:06.185Z,1.70
2019-01-09T12:24:34.960Z,1.60
2019-01-09T12:27:03.925Z,1.80
2019-01-09T12:29:32.965Z,1.70
2019-01-09T12:32:01.765Z,1.70
2019-01-09T12:34:31.113Z,1.70
2019-01-09T12:37:00.217Z,1.70
2019-01-09T12:39:29.496Z,1.70
2019-01-09T12:41:58.622Z,1.70
2019-01-09T12:44:27.641Z,1.80
2019-01-09T12:46:57.015Z,1.70
2019-01-09T12:49:26.373Z,1.70
2019-01-09T12:51:55.460Z,1.70
2019-01-09T12:54:24.526Z,1.60
2019-01-09T12:56:53.356Z,1.70
2019-01-09T12:59:22.387Z,1.70
2019-01-09T13:01:51.458Z,1.70
2019-01-09T13:04:20.522Z,1.60
2019-01-09T13:06:49.443Z,1.70
2019-01-09T13:09:22.353Z,1.60
2019-01-09T13:11:49.264Z,1.70
2019-01-09T13:14:18.060Z,1.70
2019-01-09T13:16:48.000Z,1.60
2019-01-09T13:19:16.936Z,1.60
2019-01-09T13:21:45.720Z,1.70
2019-01-09T13:24:14.757Z,1.70
2019-01-09T13:26:44.040Z,1.60
2019-01-09T13:29:12.815Z,1.70
2019-01-09T13:31:41.854Z,1.70
2019-01-09T13:34:10.956Z,1.70
2019-01-09T13:36:40.267Z,1.60
2019-01-09T13:39:10.091Z,1.70
2019-01-09T13:41:39.209Z,1.80
2019-01-09T13:44:08.161Z,1.80
2019-01-09T13:46:37.028Z,1.80
2019-01-09T13:49:06.165Z,1.80
2019-01-09T13:51:35.488Z,1.90
2019-01-09T13:54:04.801Z,1.90
2019-01-09T13:56:34.085Z,1.90
2019-01-09T13:59:02.952Z,1.90
2019-01-09T14:01:31.733Z,1.90
2019-01-09T14:04:01.293Z,1.90
2019-01-09T14:06:30.401Z,1.90
2019-01-09T14:08:59.532Z,2.00
2019-01-09T14:11:28.877Z,2.00
2019-01-09T14:13:57.927Z,2.00
2019-01-09T14:16:27.278Z,2.00
2019-01-09T14:18:56.324Z,2.00
2019-01-09T14:21:25.197Z,2.00
2019-01-09T14:23:54.287Z,2.00
2019-01-09T14:26:23.487Z,2.00
2019-01-09T14:28:52.854Z,2.00
2019-01-09T14:31:22.221Z,2.10
2019-01-09T14:33:51.252Z,2.10
2019-01-09T14:36:20.129Z,2.10
2019-01-09T14:38:49.139Z,2.10
2019-01-09T14:41:19.884Z,2.10
2019-01-09T14:43:49.440Z,2.10
2019-01-09T14:46:18.505Z,2.10
2019-01-09T14:48:47.280Z,2.10
2019-01-09T14:51:16.296Z,2.10
2019-01-09T14:53:45.102Z,2.10
2019-01-09T14:56:14.461Z,2.10
2019-01-09T14:58:43.392Z,2.10
2019-01-09T15:01:12.673Z,2.10
2019-01-09T15:03:41.998Z,2.10
2019-01-09T15:06:10.924Z,2.00
2019-01-09T15:08:40.016Z,2.10
2019-01-09T15:11:09.380Z,2.10
2019-01-09T15:13:38.433Z,2.10
2019-01-09T15:16:07.690Z,2.00
2019-01-09T15:18:36.791Z,2.10
2019-01-09T15:21:05.820Z,2.10
2019-01-09T15:23:34.932Z,2.10
2019-01-09T15:26:04.074Z,2.10
2019-01-09T15:28:33.278Z,2.10
2019-01-09T15:31:02.325Z,2.10
2019-01-09T15:33:31.129Z,2.10
2019-01-09T15:36:00.009Z,2.10
2019-01-09T15:38:29.360Z,2.10
2019-01-09T15:40:58.517Z,2.20
2019-01-09T15:43:27.297Z,2.10
2019-01-09T15:45:56.361Z,2.10
2019-01-09T15:48:25.239Z,2.20
2019-01-09T15:50:54.350Z,2.20
2019-01-09T15:53:23.224Z,2.10
2019-01-09T15:55:52.292Z,2.10
2019-01-09T15:58:21.712Z,2.20
2019-01-09T16:00:53.833Z,2.20
2019-01-09T16:03:23.051Z,2.20
2019-01-09T16:05:52.152Z,2.20
2019-01-09T16:08:21.409Z,2.20
2019-01-09T16:10:50.601Z,2.20
2019-01-09T16:13:19.856Z,2.20
2019-01-09T16:15:48.932Z,2.10
2019-01-09T16:18:17.786Z,2.10
2019-01-09T16:20:46.609Z,2.20
2019-01-09T16:23:15.481Z,2.20
2019-01-09T16:25:44.892Z,2.10
2019-01-09T16:28:13.820Z,2.10
2019-01-09T16:31:15.772Z,2.10
2019-01-09T16:33:45.071Z,2.10
2019-01-09T16:36:15.305Z,2.10
2019-01-09T16:38:44.424Z,2.10
2019-01-09T16:41:13.554Z,2.10
2019-01-09T16:43:42.933Z,2.10
2019-01-09T16:46:11.930Z,2.10
2019-01-09T16:48:41.075Z,2.10
2019-01-09T16:51:09.972Z,2.10
2019-01-09T16:53:38.856Z,2.10
2019-01-09T16:56:08.571Z,2.10
2019-01-09T16:58:37.513Z,2.10
2019-01-09T17:01:07.152Z,2.10
2019-01-09T17:03:36.333Z,2.00
2019-01-09T17:06:06.421Z,2.10
2019-01-09T17:08:35.815Z,2.10
2019-01-09T17:11:05.062Z,2.10
2019-01-09T17:13:34.428Z,2.10
2019-01-09T17:16:03.308Z,2.10
2019-01-09T17:18:32.497Z,2.10
2019-01-09T17:21:01.529Z,2.10
2019-01-09T17:23:30.645Z,2.10
2019-01-09T17:26:00.026Z,2.10
2019-01-09T17:28:28.948Z,2.10
2019-01-09T17:30:58.313Z,2.00
2019-01-09T17:33:27.365Z,2.00
2019-01-09T17:35:56.375Z,1.90
2019-01-09T17:38:26.037Z,1.90
2019-01-09T17:40:54.965Z,1.90
2019-01-09T17:43:24.717Z,1.90
2019-01-09T17:45:53.882Z,1.90
2019-01-09T17:48:22.777Z,1.90
2019-01-09T17:50:51.636Z,1.90
2019-01-09T17:53:20.738Z,1.90
2019-01-09T17:55:49.688Z,2.00
2019-01-09T17:58:18.926Z,2.00
2019-01-09T18:00:48.369Z,1.90
2019-01-09T18:03:17.670Z,1.90
2019-01-09T18:05:47.037Z,1.90
2019-01-09T18:08:16.353Z,1.90
2019-01-09T18:10:50.354Z,1.90
2019-01-09T18:13:16.661Z,2.00
2019-01-09T18:15:45.845Z,1.90
2019-01-09T18:18:14.989Z,1.90
2019-01-09T18:20:44.108Z,1.90
2019-01-09T18:23:13.807Z,1.90
2019-01-09T18:25:43.197Z,1.80
2019-01-09T18:28:12.353Z,1.80
2019-01-09T18:31:03.323Z,1.80
2019-01-09T18:33:30.256Z,1.80
2019-01-09T18:36:24.664Z,1.80
2019-01-09T18:39:30.581Z,1.80
2019-01-09T18:42:50.600Z,1.80
2019-01-09T18:46:01.175Z,1.80
2019-01-09T18:48:58.817Z,1.90
2019-01-09T18:52:04.775Z,1.90
2019-01-09T18:54:34.015Z,1.90
2019-01-09T18:57:03.265Z,1.90
2019-01-09T18:59:32.189Z,1.90
2019-01-09T19:02:01.421Z,1.90
2019-01-09T19:04:30.664Z,1.90
2019-01-09T19:07:00.056Z,1.90
2019-01-09T19:09:29.202Z,1.90
2019-01-09T19:11:58.462Z,1.90
2019-01-09T19:14:27.984Z,2.00
2019-01-09T19:16:56.909Z,1.90
2019-01-09T19:19:26.114Z,1.90
2019-01-09T19:21:55.001Z,2.00
2019-01-09T19:24:23.924Z,2.00
2019-01-09T19:26:53.065Z,2.00
2019-01-09T19:29:22.033Z,2.10
2019-01-09T19:31:51.675Z,2.00
2019-01-09T19:34:20.764Z,2.10
2019-01-09T19:36:49.700Z,2.00
2019-01-09T19:39:19.221Z,2.10
2019-01-09T19:41:48.365Z,2.10
2019-01-09T19:44:17.319Z,2.00
2019-01-09T19:46:46.176Z,2.10
2019-01-09T19:49:15.673Z,2.20
2019-01-09T19:51:44.674Z,2.10
2019-01-09T19:54:13.834Z,2.10
2019-01-09T19:56:42.770Z,2.20
2019-01-09T19:59:12.239Z,2.10
2019-01-09T20:01:41.496Z,2.10
2019-01-09T20:04:10.673Z,2.10
2019-01-09T20:06:39.938Z,2.20
2019-01-09T20:09:09.695Z,2.20
2019-01-09T20:11:38.562Z,2.20
2019-01-09T20:14:07.782Z,2.30
2019-01-09T20:16:37.377Z,2.20
2019-01-09T20:19:06.704Z,2.30
2019-01-09T20:21:36.195Z,2.20
2019-01-09T20:24:05.280Z,2.20
2019-01-09T20:26:34.515Z,2.20
2019-01-09T20:29:03.500Z,2.30
2019-01-09T20:31:33.387Z,2.30
2019-01-09T20:34:02.581Z,2.40
2019-01-09T20:36:31.588Z,2.30
2019-01-09T20:39:00.737Z,2.30
2019-01-09T20:41:35.209Z,2.30
2019-01-09T20:44:00.691Z,2.30
2019-01-09T20:46:29.826Z,2.30
2019-01-09T20:48:59.313Z,2.30
2019-01-09T20:51:28.710Z,2.40
2019-01-09T20:53:57.595Z,2.40
2019-01-09T20:56:26.725Z,2.30
2019-01-09T20:58:55.615Z,2.40
2019-01-09T21:01:24.953Z,2.40
2019-01-09T21:03:54.350Z,2.40
2019-01-09T21:06:23.637Z,2.30
2019-01-09T21:08:59.555Z,2.40
2019-01-09T21:11:23.859Z,2.40
2019-01-09T21:13:53.405Z,2.30
2019-01-09T21:16:22.599Z,2.40
2019-01-09T21:18:51.461Z,2.40
2019-01-09T21:21:20.261Z,2.40
2019-01-09T21:23:49.236Z,2.40
2019-01-09T21:26:18.097Z,2.40
2019-01-09T21:28:47.422Z,2.40
2019-01-09T21:31:16.524Z,2.50
2019-01-09T21:33:45.340Z,2.40
2019-01-09T21:36:14.132Z,2.50
2019-01-09T21:38:43.534Z,2.60
2019-01-09T21:41:12.394Z,2.50
2019-01-09T21:43:41.554Z,2.60
2019-01-09T21:46:10.712Z,2.50
2019-01-09T21:48:39.654Z,2.50
2019-01-09T21:51:08.862Z,2.50
2019-01-09T21:53:38.094Z,2.50
2019-01-09T21:56:07.122Z,2.60
2019-01-09T21:58:36.393Z,2.60
